Charlotte Roush — WDE5112 — position and weather

sailwx.info

Track history (hours):
 
Tides and Currents Weather Stations Pressure Air Temp Water Temp Dewpoint Dewpoint Depression Visibility Wind Speed Wind Dir Waves Ship Positions

Charlotte Roush

Owner: AEP River Operations LLC, Chesterfield, MO. More information available from US FCC via Universal Licensing System and Coast Guard Vessel Documentation Center.

Last reported at 2016-May-25 04:33 UTC. Time now 2016-May-25 22:40 UTC.
Position N 29°58' W 090°14'.

Length 35 m; draft 3 m.

Type: Towing. MMSI: 367362230.

Date/timePositionNaut miles runAvg speedWind from/ knotsBaromVisibWave heightAir tempDewpointWater temp
2016-May-25 04:33N 29°58' W 090°14'3 2.6
2016-May-25 03:33N 29°56' W 090°12'2 2.4
2016-May-25 02:33N 29°57' W 090°09'2 2.4
2016-May-25 01:33N 29°55' W 090°08'3 3.4
2016-May-25 00:33N 29°55' W 090°04'3 2.6
2016-May-24 23:33N 29°57' W 090°02'3 2.6
2016-May-24 22:33N 29°56' W 089°60'3 2.7
2016-May-24 21:33N 29°55' W 089°57'3 2.8
2016-May-24 20:29N 29°53' W 089°54'2 2.3
2016-May-24 19:33N 29°52' W 089°57'2 2.4
2016-May-24 18:33N 29°51' W 089°59'3 3.2
2016-May-24 17:32N 29°48' W 090°00'0 0.1
2016-May-24 16:17N 29°48' W 090°00'2 0.1
2016-May-24 00:33N 29°46' W 090°02'7 7.3
2016-May-23 23:33N 29°53' W 089°59'4 3.2
2016-May-23 22:25N 29°55' W 089°56'6 7.4
2016-May-23 21:33N 29°58' W 090°03'5 5.5
2016-May-23 20:33N 29°55' W 090°08'11 0.3
2016-May-22 01:32N 29°56' W 090°21'7 0.4
2016-May-21 06:14N 29°57' W 090°14'2 2.8
2016-May-21 05:22N 29°55' W 090°12'1 1.7
2016-May-21 04:33N 29°56' W 090°11'2 2.1
2016-May-21 03:33N 29°57' W 090°09'3 3.1
2016-May-21 02:33N 29°55' W 090°06'3 3.1
2016-May-21 01:33N 29°57' W 090°04'2 1.6
2016-May-21 00:33N 29°57' W 090°02'1 1.0
2016-May-20 23:33N 29°57' W 090°01'0 0.0
2016-May-20 22:33N 29°57' W 090°01'3 3.4
2016-May-20 21:33N 29°55' W 089°57'1 1.2
2016-May-20 20:33N 29°55' W 089°56'0 0.2
2016-May-20 18:33N 29°55' W 089°55'0 0.0
2016-May-20 17:33N 29°55' W 089°55'0 0.0
2016-May-20 15:29N 29°55' W 089°55'0 0.0
2016-May-20 14:33N 29°55' W 089°55'0 0.0
2016-May-20 13:33N 29°55' W 089°55'0 0.0
2016-May-20 12:33N 29°55' W 089°55'0 0.0
2016-May-20 11:33N 29°55' W 089°55'0 0.0
2016-May-20 10:33N 29°55' W 089°55'0 0.0
2016-May-20 09:33N 29°55' W 089°55'0 0.0
2016-May-20 08:33N 29°55' W 089°55'0 0.0
2016-May-20 07:33N 29°55' W 089°55'0 0.0
2016-May-20 06:33N 29°55' W 089°55'0 0.0
2016-May-20 05:33N 29°55' W 089°55'3 1.3
2016-May-20 03:18N 29°52' W 089°55'3 3.6
2016-May-20 02:33N 29°52' W 089°58'5 5.1
2016-May-20 01:33N 29°47' W 090°01'3 0.6
2016-May-19 20:22N 29°44' W 089°60'6 7.3
2016-May-19 19:33N 29°50' W 089°60'6 6.0
2016-May-19 18:33N 29°54' W 089°54'8 8.3
2016-May-19 17:33N 29°58' W 090°03'5 4.9
2016-May-19 16:33N 29°57' W 090°08'8 0.3
2016-May-18 15:05N 29°58' W 090°18'5 3.2
2016-May-18 13:22N 29°56' W 090°12'3 3.6
2016-May-18 12:33N 29°57' W 090°09'3 3.4
2016-May-18 11:33N 29°55' W 090°07'3 3.4
2016-May-18 10:33N 29°57' W 090°04'3 3.4
2016-May-18 09:33N 29°56' W 089°60'4 3.5
2016-May-18 08:32N 29°55' W 089°56'3 2.9
2016-May-18 07:25N 29°52' W 089°55'3 3.3
2016-May-18 06:33N 29°52' W 089°58'4 3.6
2016-May-18 05:33N 29°49' W 090°00'7 0.4
2016-May-17 13:12N 29°42' W 089°59'4 5.8
2016-May-17 12:33N 29°45' W 090°01'3 3.3
2016-May-17 11:33N 29°48' W 090°01'5 4.9
2016-May-17 10:33N 29°53' W 089°58'4 3.5
2016-May-17 09:33N 29°55' W 089°56'7 7.0
2016-May-17 08:33N 29°57' W 090°03'4 4.3
2016-May-17 07:33N 29°57' W 090°08'2 1.7
2016-May-17 06:07N 29°56' W 090°11'1 0.0
2016-May-16 03:31N 29°56' W 090°12'3 3.2
2016-May-16 02:33N 29°56' W 090°08'4 3.6
2016-May-16 01:33N 29°55' W 090°05'3 3.0
2016-May-16 00:33N 29°57' W 090°02'3 3.2
2016-May-15 23:33N 29°56' W 089°59'4 4.3
2016-May-15 22:30N 29°53' W 089°54'3 3.1
2016-May-15 21:33N 29°53' W 089°58'4 4.0
2016-May-15 20:32N 29°49' W 089°60'6 0.4
2016-May-15 05:33N 29°43' W 089°59'  
Track history (hours):
 
Tides and Currents Weather Stations Pressure Air Temp Water Temp Dewpoint Dewpoint Depression Visibility Wind Speed Wind Dir Waves Ship Positions

Charlotte Roush

Owner: AEP River Operations LLC, Chesterfield, MO. More information available from US FCC via Universal Licensing System and Coast Guard Vessel Documentation Center.

Last reported at 2016-May-25 04:33 UTC. Time now 2016-May-25 22:40 UTC.
Position N 29°58' W 090°14'.

Length 35 m; draft 3 m.

Type: Towing. MMSI: 367362230.

Date/timePositionNaut miles runAvg speedWind from/ knotsBaromVisibWave heightAir tempDewpointWater temp
2016-May-25 04:33N 29°58' W 090°14'3 2.6
2016-May-25 03:33N 29°56' W 090°12'2 2.4
2016-May-25 02:33N 29°57' W 090°09'2 2.4
2016-May-25 01:33N 29°55' W 090°08'3 3.4
2016-May-25 00:33N 29°55' W 090°04'3 2.6
2016-May-24 23:33N 29°57' W 090°02'3 2.6
2016-May-24 22:33N 29°56' W 089°60'3 2.7
2016-May-24 21:33N 29°55' W 089°57'3 2.8
2016-May-24 20:29N 29°53' W 089°54'2 2.3
2016-May-24 19:33N 29°52' W 089°57'2 2.4
2016-May-24 18:33N 29°51' W 089°59'3 3.2
2016-May-24 17:32N 29°48' W 090°00'0 0.1
2016-May-24 16:17N 29°48' W 090°00'2 0.1
2016-May-24 00:33N 29°46' W 090°02'7 7.3
2016-May-23 23:33N 29°53' W 089°59'4 3.2
2016-May-23 22:25N 29°55' W 089°56'6 7.4
2016-May-23 21:33N 29°58' W 090°03'5 5.5
2016-May-23 20:33N 29°55' W 090°08'11 0.3
2016-May-22 01:32N 29°56' W 090°21'7 0.4
2016-May-21 06:14N 29°57' W 090°14'2 2.8
2016-May-21 05:22N 29°55' W 090°12'1 1.7
2016-May-21 04:33N 29°56' W 090°11'2 2.1
2016-May-21 03:33N 29°57' W 090°09'3 3.1
2016-May-21 02:33N 29°55' W 090°06'3 3.1
2016-May-21 01:33N 29°57' W 090°04'2 1.6
2016-May-21 00:33N 29°57' W 090°02'1 1.0
2016-May-20 23:33N 29°57' W 090°01'0 0.0
2016-May-20 22:33N 29°57' W 090°01'3 3.4
2016-May-20 21:33N 29°55' W 089°57'1 1.2
2016-May-20 20:33N 29°55' W 089°56'0 0.2
2016-May-20 18:33N 29°55' W 089°55'0 0.0
2016-May-20 17:33N 29°55' W 089°55'0 0.0
2016-May-20 15:29N 29°55' W 089°55'0 0.0
2016-May-20 14:33N 29°55' W 089°55'0 0.0
2016-May-20 13:33N 29°55' W 089°55'0 0.0
2016-May-20 12:33N 29°55' W 089°55'0 0.0
2016-May-20 11:33N 29°55' W 089°55'0 0.0
2016-May-20 10:33N 29°55' W 089°55'0 0.0
2016-May-20 09:33N 29°55' W 089°55'0 0.0
2016-May-20 08:33N 29°55' W 089°55'0 0.0
2016-May-20 07:33N 29°55' W 089°55'0 0.0
2016-May-20 06:33N 29°55' W 089°55'0 0.0
2016-May-20 05:33N 29°55' W 089°55'3 1.3
2016-May-20 03:18N 29°52' W 089°55'3 3.6
2016-May-20 02:33N 29°52' W 089°58'5 5.1
2016-May-20 01:33N 29°47' W 090°01'3 0.6
2016-May-19 20:22N 29°44' W 089°60'6 7.3
2016-May-19 19:33N 29°50' W 089°60'6 6.0
2016-May-19 18:33N 29°54' W 089°54'8 8.3
2016-May-19 17:33N 29°58' W 090°03'5 4.9
2016-May-19 16:33N 29°57' W 090°08'8 0.3
2016-May-18 15:05N 29°58' W 090°18'5 3.2
2016-May-18 13:22N 29°56' W 090°12'3 3.6
2016-May-18 12:33N 29°57' W 090°09'3 3.4
2016-May-18 11:33N 29°55' W 090°07'3 3.4
2016-May-18 10:33N 29°57' W 090°04'3 3.4
2016-May-18 09:33N 29°56' W 089°60'4 3.5
2016-May-18 08:32N 29°55' W 089°56'3 2.9
2016-May-18 07:25N 29°52' W 089°55'3 3.3
2016-May-18 06:33N 29°52' W 089°58'4 3.6
2016-May-18 05:33N 29°49' W 090°00'7 0.4
2016-May-17 13:12N 29°42' W 089°59'4 5.8
2016-May-17 12:33N 29°45' W 090°01'3 3.3
2016-May-17 11:33N 29°48' W 090°01'5 4.9
2016-May-17 10:33N 29°53' W 089°58'4 3.5
2016-May-17 09:33N 29°55' W 089°56'7 7.0
2016-May-17 08:33N 29°57' W 090°03'4 4.3
2016-May-17 07:33N 29°57' W 090°08'2 1.7
2016-May-17 06:07N 29°56' W 090°11'1 0.0
2016-May-16 03:31N 29°56' W 090°12'3 3.2
2016-May-16 02:33N 29°56' W 090°08'4 3.6
2016-May-16 01:33N 29°55' W 090°05'3 3.0
2016-May-16 00:33N 29°57' W 090°02'3 3.2
2016-May-15 23:33N 29°56' W 089°59'4 4.3
2016-May-15 22:30N 29°53' W 089°54'3 3.1
2016-May-15 21:33N 29°53' W 089°58'4 4.0
2016-May-15 20:32N 29°49' W 089°60'6 0.4
2016-May-15 05:33N 29°43' W 089°59'  

Dump ship's entire track history